createdAt,value
2019-05-10T00:04:38.210Z,10.57
2019-05-10T00:07:13.112Z,10.60
2019-05-10T00:09:40.870Z,10.66
2019-05-10T00:15:06.597Z,10.83
2019-05-10T00:17:34.953Z,10.74
2019-05-10T00:20:03.302Z,10.68
2019-05-10T00:22:34.941Z,10.69
2019-05-10T00:25:04.930Z,10.66
2019-05-10T00:27:31.642Z,10.73
2019-05-10T00:30:00.001Z,10.76
2019-05-10T00:35:02.607Z,10.73
2019-05-10T00:37:30.937Z,10.75
2019-05-10T00:39:59.290Z,10.63
2019-05-10T00:42:27.639Z,10.57
2019-05-10T00:44:56.011Z,10.47
2019-05-10T00:47:24.345Z,10.48
2019-05-10T00:52:28.866Z,10.22
2019-05-10T00:57:32.330Z,10.20
2019-05-10T01:00:00.677Z,10.09
2019-05-10T01:02:29.017Z,9.92
2019-05-10T01:04:57.351Z,9.85
2019-05-10T01:07:25.707Z,9.96
2019-05-10T01:09:54.060Z,10.06
2019-05-10T01:12:23.400Z,10.11
2019-05-10T01:14:51.729Z,10.16
2019-05-10T01:17:20.091Z,10.15
2019-05-10T01:19:48.436Z,10.19
2019-05-10T01:22:20.998Z,10.03
2019-05-10T01:24:49.350Z,9.93
2019-05-10T01:27:17.716Z,9.81
2019-05-10T01:29:46.054Z,9.67
2019-05-10T01:32:14.385Z,9.54
2019-05-10T01:34:43.647Z,9.53
2019-05-10T01:37:11.993Z,9.39
2019-05-10T01:39:40.334Z,9.38
2019-05-10T01:42:08.699Z,9.31
2019-05-10T01:47:11.273Z,9.27
2019-05-10T01:49:39.609Z,9.19
2019-05-10T01:52:07.953Z,9.13
2019-05-10T01:54:37.254Z,9.22
2019-05-10T01:57:05.584Z,9.21
2019-05-10T01:59:33.917Z,9.19
2019-05-10T02:02:02.259Z,9.20
2019-05-10T02:04:30.593Z,9.19
2019-05-10T02:06:58.937Z,9.15
2019-05-10T02:09:27.267Z,9.26
2019-05-10T02:11:55.608Z,9.24
2019-05-10T02:14:23.988Z,9.27
2019-05-10T02:16:52.317Z,9.28
2019-05-10T02:19:20.648Z,9.29
2019-05-10T02:21:48.993Z,9.33
2019-05-10T02:24:17.324Z,9.28
2019-05-10T02:26:45.665Z,9.22
2019-05-10T02:29:13.999Z,9.14
2019-05-10T02:31:42.342Z,9.15
2019-05-10T02:34:10.668Z,9.10
2019-05-10T02:36:39.978Z,8.97
2019-05-10T02:39:08.311Z,8.94
2019-05-10T02:41:36.645Z,8.92
2019-05-10T02:44:05.029Z,8.73
2019-05-10T02:46:34.338Z,8.69
2019-05-10T02:49:02.668Z,8.59
2019-05-10T02:51:31.003Z,8.54
2019-05-10T02:53:59.332Z,8.42
2019-05-10T02:56:30.903Z,8.38
2019-05-10T02:58:56.964Z,8.32
2019-05-10T03:01:25.324Z,8.24
2019-05-10T03:03:53.732Z,8.24
2019-05-10T03:06:21.998Z,8.21
2019-05-10T03:08:51.151Z,8.19
2019-05-10T03:11:20.423Z,8.22
2019-05-10T03:13:49.574Z,8.16
2019-05-10T03:18:55.088Z,8.08
2019-05-10T03:21:23.427Z,8.08
2019-05-10T03:26:27.010Z,7.97
2019-05-10T03:28:57.317Z,7.81
2019-05-10T03:31:25.671Z,7.71
2019-05-10T03:33:57.231Z,7.67
2019-05-10T03:36:22.359Z,7.63
2019-05-10T03:38:50.676Z,7.54
2019-05-10T03:43:56.286Z,7.51
2019-05-10T03:46:24.600Z,7.43
2019-05-10T03:51:27.197Z,7.20
2019-05-10T03:53:56.508Z,7.06
2019-05-10T03:56:24.854Z,6.98
2019-05-10T03:58:53.212Z,6.96
2019-05-10T04:01:21.530Z,6.84
2019-05-10T04:06:25.349Z,6.78
2019-05-10T04:08:53.695Z,6.95
2019-05-10T04:13:56.257Z,7.09
2019-05-10T04:16:24.612Z,7.28
2019-05-10T04:18:52.941Z,7.46
2019-05-10T04:21:21.286Z,7.63
2019-05-10T04:23:49.617Z,7.69
2019-05-10T04:28:52.217Z,8.11
2019-05-10T04:31:20.560Z,8.39
2019-05-10T04:33:48.898Z,8.65
2019-05-10T04:36:17.250Z,8.87
2019-05-10T04:38:47.483Z,8.99
2019-05-10T04:41:15.807Z,9.09
2019-05-10T04:43:44.143Z,9.17
2019-05-10T04:46:12.587Z,9.22
2019-05-10T04:48:40.800Z,9.32
2019-05-10T04:51:10.130Z,9.43
2019-05-10T04:53:38.612Z,9.70
2019-05-10T04:56:07.880Z,10.09
2019-05-10T04:58:36.230Z,10.33
2019-05-10T05:01:04.561Z,10.56
2019-05-10T05:03:32.927Z,10.81
2019-05-10T05:06:01.266Z,11.02
2019-05-10T05:08:29.628Z,11.03
2019-05-10T05:10:57.995Z,11.24
2019-05-10T05:13:26.347Z,11.41
2019-05-10T05:15:54.689Z,11.43
2019-05-10T05:18:23.037Z,11.41
2019-05-10T05:20:51.385Z,11.43
2019-05-10T05:23:19.738Z,11.15
2019-05-10T05:28:23.367Z,11.12
2019-05-10T05:33:24.898Z,11.08
2019-05-10T05:35:53.248Z,11.21
2019-05-10T05:38:21.597Z,11.20
2019-05-10T05:40:50.880Z,11.23
2019-05-10T05:43:19.240Z,11.21
2019-05-10T05:45:47.587Z,11.24
2019-05-10T05:48:20.782Z,11.25
2019-05-10T05:50:44.344Z,11.27
2019-05-10T05:53:12.688Z,11.25
2019-05-10T05:55:41.040Z,11.19
2019-05-10T05:58:25.381Z,11.19
2019-05-10T06:00:44.884Z,11.35
2019-05-10T06:03:08.025Z,11.38
2019-05-10T06:05:37.256Z,11.43
2019-05-10T06:08:21.845Z,11.50
2019-05-10T06:10:38.854Z,11.42
2019-05-10T06:13:10.933Z,11.45
2019-05-10T06:15:42.882Z,11.46
2019-05-10T06:18:18.597Z,11.50
2019-05-10T06:23:29.124Z,11.13
2019-05-10T06:25:53.554Z,11.08
2019-05-10T06:28:26.802Z,11.06
2019-05-10T06:30:50.241Z,10.98
2019-05-10T06:33:18.596Z,11.11
2019-05-10T06:38:21.217Z,11.38
2019-05-10T06:40:51.586Z,11.39
2019-05-10T06:43:19.840Z,11.45
2019-05-10T06:45:52.581Z,11.69
2019-05-10T06:48:26.128Z,11.70
2019-05-10T06:53:19.082Z,11.65
2019-05-10T06:55:47.429Z,11.77
2019-05-10T06:58:15.777Z,11.74
2019-05-10T07:00:45.602Z,11.72
2019-05-10T07:05:47.914Z,11.71
2019-05-10T07:08:20.297Z,11.76
2019-05-10T07:10:44.604Z,11.79
2019-05-10T07:13:17.608Z,11.73
2019-05-10T07:15:45.970Z,11.64
2019-05-10T07:18:16.859Z,11.63
2019-05-10T07:20:46.246Z,11.56
2019-05-10T07:23:14.637Z,11.56
2019-05-10T07:25:44.016Z,11.61
2019-05-10T07:28:16.341Z,11.64
2019-05-10T07:30:41.526Z,11.74
2019-05-10T07:33:08.076Z,11.73
2019-05-10T07:35:37.276Z,11.82
2019-05-10T07:38:04.775Z,11.58
2019-05-10T07:40:34.075Z,11.57
2019-05-10T07:43:02.441Z,11.59
2019-05-10T07:45:32.785Z,11.61
2019-05-10T07:48:08.301Z,11.82
2019-05-10T07:50:32.408Z,11.92
2019-05-10T07:53:04.520Z,12.23
2019-05-10T07:55:33.011Z,12.23
2019-05-10T07:58:04.964Z,12.41
2019-05-10T08:00:37.687Z,12.61
2019-05-10T08:05:35.211Z,13.52
2019-05-10T08:08:03.672Z,13.36
2019-05-10T08:13:08.301Z,13.28
2019-05-10T08:15:35.600Z,13.49
2019-05-10T08:18:03.940Z,13.63
2019-05-10T08:20:46.614Z,13.34
2019-05-10T08:23:02.855Z,13.22
2019-05-10T08:25:36.334Z,13.76
2019-05-10T08:28:02.422Z,13.84
2019-05-10T08:30:34.311Z,14.18
2019-05-10T08:35:43.419Z,14.29
2019-05-10T08:38:07.341Z,13.69
2019-05-10T08:40:37.992Z,13.75
2019-05-10T08:43:08.421Z,14.34
2019-05-10T08:45:32.577Z,13.77
2019-05-10T08:48:06.901Z,13.95
2019-05-10T08:53:10.524Z,14.04
2019-05-10T08:55:32.126Z,14.74
2019-05-10T09:00:49.691Z,14.81
2019-05-10T09:03:09.431Z,14.49
2019-05-10T09:05:35.918Z,15.19
2019-05-10T09:08:05.828Z,15.11
2019-05-10T09:10:32.764Z,14.92
2019-05-10T09:13:03.281Z,14.73
2019-05-10T09:15:29.459Z,14.22
2019-05-10T09:18:07.379Z,14.04
2019-05-10T09:20:31.799Z,13.85
2019-05-10T09:23:02.194Z,14.00
2019-05-10T09:25:30.901Z,14.21
2019-05-10T09:28:04.526Z,14.22
2019-05-10T09:33:08.679Z,14.19
2019-05-10T09:35:33.399Z,13.92
2019-05-10T09:38:03.663Z,13.94
2019-05-10T09:43:09.830Z,13.27
2019-05-10T09:45:37.678Z,12.85
2019-05-10T09:48:06.049Z,12.76
2019-05-10T09:50:44.104Z,12.97
2019-05-10T09:53:09.120Z,13.32
2019-05-10T09:55:36.955Z,13.46
2019-05-10T09:58:04.270Z,13.43
2019-05-10T10:00:32.623Z,13.56
2019-05-10T10:03:03.930Z,13.57
2019-05-10T10:05:39.867Z,13.52
2019-05-10T10:08:09.225Z,13.65
2019-05-10T10:10:36.978Z,13.57
2019-05-10T10:15:39.262Z,13.50
2019-05-10T10:18:07.655Z,13.38
2019-05-10T10:20:43.397Z,13.35
2019-05-10T10:23:04.389Z,13.64
2019-05-10T10:25:35.185Z,13.64
2019-05-10T10:28:08.258Z,13.59
2019-05-10T10:30:33.344Z,13.83
2019-05-10T10:35:38.158Z,13.63
2019-05-10T10:38:08.020Z,13.19
2019-05-10T10:40:44.194Z,12.83
2019-05-10T10:43:07.451Z,12.55
2019-05-10T10:45:39.001Z,12.91
2019-05-10T10:48:11.215Z,13.22
2019-05-10T10:53:09.961Z,13.21
2019-05-10T10:55:40.265Z,13.31
2019-05-10T10:58:07.349Z,13.51
2019-05-10T11:00:38.934Z,13.31
2019-05-10T11:03:04.333Z,13.34
2019-05-10T11:08:06.925Z,13.61
2019-05-10T11:10:35.302Z,14.87
2019-05-10T11:13:11.109Z,14.54
2019-05-10T11:15:35.888Z,15.16
2019-05-10T11:18:04.004Z,17.87
2019-05-10T11:20:32.357Z,17.67
2019-05-10T11:23:01.646Z,19.03
2019-05-10T11:25:30.953Z,17.77
2019-05-10T11:28:01.785Z,18.67
2019-05-10T11:30:32.498Z,17.02
2019-05-10T11:33:00.935Z,16.06
2019-05-10T11:35:33.844Z,18.06
2019-05-10T11:38:01.214Z,19.98
2019-05-10T11:40:32.148Z,17.86
2019-05-10T11:42:55.781Z,16.11
2019-05-10T11:45:26.104Z,15.42
2019-05-10T11:47:54.433Z,15.78
2019-05-10T11:50:30.862Z,16.90
2019-05-10T11:52:51.351Z,16.31
2019-05-10T11:55:17.690Z,15.21
2019-05-10T11:57:59.979Z,16.70
2019-05-10T12:00:25.618Z,17.88
2019-05-10T12:03:03.545Z,18.03
2019-05-10T12:07:47.288Z,17.13
2019-05-10T12:10:24.315Z,16.79
2019-05-10T12:13:04.835Z,17.06
2019-05-10T12:15:25.490Z,18.81
2019-05-10T12:17:58.007Z,18.62
2019-05-10T12:22:55.027Z,16.77
2019-05-10T12:25:47.194Z,17.33
2019-05-10T12:28:24.557Z,16.88
2019-05-10T12:30:48.201Z,16.94
2019-05-10T12:33:25.237Z,15.96
2019-05-10T12:35:47.638Z,15.47
2019-05-10T12:38:31.741Z,14.82
2019-05-10T12:41:01.212Z,14.60
2019-05-10T12:43:32.768Z,14.94
2019-05-10T12:48:53.468Z,15.14
2019-05-10T12:51:21.800Z,15.35
2019-05-10T12:53:52.099Z,17.12
2019-05-10T12:56:18.549Z,18.56
2019-05-10T12:58:56.336Z,19.07
2019-05-10T13:03:49.509Z,20.72
2019-05-10T13:06:21.366Z,19.32
2019-05-10T13:08:50.817Z,18.46
2019-05-10T13:11:27.230Z,20.25
2019-05-10T13:13:49.428Z,22.03
2019-05-10T13:16:17.781Z,25.21
2019-05-10T13:18:51.976Z,24.41
2019-05-10T13:21:20.666Z,22.48
2019-05-10T13:26:17.138Z,21.08
2019-05-10T13:28:45.485Z,22.10
2019-05-10T13:31:15.223Z,22.34
2019-05-10T13:33:44.326Z,22.39
2019-05-10T13:36:10.605Z,22.91
2019-05-10T13:38:48.612Z,22.55
2019-05-10T13:41:11.667Z,22.44
2019-05-10T13:43:40.014Z,20.43
2019-05-10T13:48:43.628Z,21.30
2019-05-10T13:51:12.958Z,23.34
2019-05-10T13:56:16.561Z,21.09
2019-05-10T13:58:45.805Z,19.78
2019-05-10T14:01:14.830Z,19.04
2019-05-10T14:03:46.467Z,18.83
2019-05-10T14:06:11.848Z,18.65
2019-05-10T14:13:48.987Z,17.88
2019-05-10T14:16:19.687Z,17.51
2019-05-10T14:18:45.683Z,19.15
2019-05-10T14:21:14.037Z,20.34
2019-05-10T14:23:42.387Z,21.52
2019-05-10T14:26:15.875Z,20.90
2019-05-10T14:28:39.066Z,22.68
2019-05-10T14:31:07.419Z,22.33
2019-05-10T14:33:35.764Z,21.40
2019-05-10T14:36:04.126Z,22.35
2019-05-10T14:38:32.473Z,20.63
2019-05-10T14:41:03.861Z,19.63
2019-05-10T14:43:29.203Z,19.81
2019-05-10T14:45:57.584Z,18.66
2019-05-10T14:48:29.130Z,17.56
2019-05-10T14:50:54.277Z,17.66
2019-05-10T14:53:25.506Z,18.40
2019-05-10T14:55:50.977Z,18.56
2019-05-10T14:58:19.327Z,18.18
2019-05-10T15:00:47.677Z,18.52
2019-05-10T15:03:16.033Z,18.08
2019-05-10T15:05:48.949Z,17.79
2019-05-10T15:08:12.801Z,18.34
2019-05-10T15:13:19.666Z,18.40
2019-05-10T15:15:43.911Z,17.40
2019-05-10T15:18:12.277Z,16.78
2019-05-10T15:20:41.572Z,16.47
2019-05-10T15:23:10.060Z,16.15
2019-05-10T15:25:38.391Z,16.35
2019-05-10T15:28:07.779Z,16.35
2019-05-10T15:30:39.438Z,16.14
2019-05-10T15:33:04.497Z,15.98
2019-05-10T15:35:33.793Z,15.54
2019-05-10T15:40:38.770Z,15.06
2019-05-10T15:43:10.155Z,16.86
2019-05-10T15:48:07.626Z,21.04
2019-05-10T15:50:38.568Z,20.81
2019-05-10T15:53:04.402Z,19.84
2019-05-10T15:58:06.918Z,20.67
2019-05-10T16:00:39.631Z,20.89
2019-05-10T16:03:03.647Z,21.96
2019-05-10T16:05:42.933Z,22.27
2019-05-10T16:08:01.321Z,22.50
2019-05-10T16:13:03.975Z,25.51
2019-05-10T16:15:33.408Z,24.92
2019-05-10T16:18:01.867Z,24.31
2019-05-10T16:20:31.707Z,20.47
2019-05-10T16:25:41.561Z,18.82
2019-05-10T16:30:36.658Z,16.43
2019-05-10T16:33:09.609Z,16.29
2019-05-10T16:35:38.861Z,16.51
2019-05-10T16:38:05.105Z,16.36
2019-05-10T16:40:33.526Z,15.90
2019-05-10T16:43:06.656Z,16.00
2019-05-10T16:45:37.975Z,15.51
2019-05-10T16:48:08.305Z,15.27
2019-05-10T16:50:37.543Z,15.36
2019-05-10T16:53:08.112Z,15.30
2019-05-10T16:55:35.456Z,15.32
2019-05-10T17:00:40.620Z,15.60
2019-05-10T17:03:07.222Z,15.58
2019-05-10T17:05:35.563Z,15.51
2019-05-10T17:08:03.924Z,15.24
2019-05-10T17:10:33.103Z,15.19
2019-05-10T17:13:04.941Z,15.48
2019-05-10T17:15:33.972Z,15.37
2019-05-10T17:20:32.588Z,15.07
2019-05-10T17:23:08.873Z,14.60
2019-05-10T17:25:29.334Z,14.60
2019-05-10T17:27:59.870Z,14.61
2019-05-10T17:30:27.960Z,14.50
2019-05-10T17:32:57.703Z,14.13
2019-05-10T17:35:22.804Z,14.25
2019-05-10T17:37:53.064Z,14.42
2019-05-10T17:40:19.652Z,14.37
2019-05-10T17:42:51.485Z,14.43
2019-05-10T17:45:18.897Z,14.46
2019-05-10T17:47:45.712Z,14.39
2019-05-10T17:50:14.085Z,14.40
2019-05-10T17:55:18.463Z,14.34
2019-05-10T17:57:48.563Z,14.38
2019-05-10T18:00:14.455Z,14.30
2019-05-10T18:02:42.795Z,14.02
2019-05-10T18:05:11.160Z,13.91
2019-05-10T18:07:39.505Z,13.87
2019-05-10T18:10:08.730Z,13.83
2019-05-10T18:12:37.092Z,13.78
2019-05-10T18:15:06.844Z,13.70
2019-05-10T18:17:36.224Z,13.61
2019-05-10T18:20:04.596Z,13.47
2019-05-10T18:22:41.854Z,13.34
2019-05-10T18:25:01.289Z,13.18
2019-05-10T18:27:29.636Z,13.14
2019-05-10T18:29:58.004Z,13.11
2019-05-10T18:32:29.205Z,13.08
2019-05-10T18:34:54.689Z,13.13
2019-05-10T18:37:23.403Z,13.18
2019-05-10T18:42:27.718Z,12.95
2019-05-10T18:44:55.896Z,12.61
2019-05-10T18:47:26.141Z,12.53
2019-05-10T18:49:54.505Z,12.34
2019-05-10T18:54:57.057Z,12.28
2019-05-10T18:57:25.412Z,12.10
2019-05-10T18:59:53.769Z,11.92
2019-05-10T19:02:22.409Z,11.79
2019-05-10T19:04:54.082Z,11.79
2019-05-10T19:09:53.449Z,11.55
2019-05-10T19:12:23.172Z,11.47
2019-05-10T19:14:50.167Z,11.38
2019-05-10T19:17:18.494Z,11.10
2019-05-10T19:19:46.845Z,10.96
2019-05-10T19:22:16.093Z,10.88
2019-05-10T19:24:44.444Z,10.95
2019-05-10T19:27:12.789Z,10.94
2019-05-10T19:29:45.634Z,10.88
2019-05-10T19:32:17.306Z,10.72
2019-05-10T19:34:37.816Z,10.65
2019-05-10T19:37:06.175Z,10.64
2019-05-10T19:39:34.515Z,10.58
2019-05-10T19:42:03.883Z,10.52
2019-05-10T19:44:34.778Z,10.49
2019-05-10T19:46:59.585Z,10.55
2019-05-10T19:49:27.949Z,10.66
2019-05-10T19:51:56.294Z,10.78
2019-05-10T19:54:31.214Z,10.84
2019-05-10T19:57:01.530Z,10.87
2019-05-10T19:59:29.910Z,10.97
2019-05-10T20:01:58.438Z,11.01
2019-05-10T20:04:26.680Z,11.03
2019-05-10T20:06:55.139Z,10.80
2019-05-10T20:09:23.469Z,10.61
2019-05-10T20:11:51.818Z,10.43
2019-05-10T20:14:20.184Z,10.28
2019-05-10T20:16:52.841Z,10.39
2019-05-10T20:19:20.337Z,10.51
2019-05-10T20:21:48.735Z,10.62
2019-05-10T20:24:17.097Z,10.74
2019-05-10T20:26:45.484Z,10.73
2019-05-10T20:29:13.953Z,10.80
2019-05-10T20:31:42.698Z,10.92
2019-05-10T20:34:11.080Z,11.06
2019-05-10T20:36:39.655Z,11.07
2019-05-10T20:39:09.979Z,11.13
2019-05-10T20:41:38.489Z,11.18
2019-05-10T20:44:06.861Z,11.18
2019-05-10T20:46:35.226Z,11.23
2019-05-10T20:49:03.804Z,11.30
2019-05-10T20:51:32.177Z,11.41
2019-05-10T20:54:00.520Z,11.44
2019-05-10T20:56:28.889Z,11.45
2019-05-10T20:58:57.224Z,11.45
2019-05-10T21:01:25.576Z,11.47
2019-05-10T21:03:55.221Z,11.55
2019-05-10T21:06:24.386Z,11.54
2019-05-10T21:08:53.273Z,11.73
2019-05-10T21:11:24.715Z,11.89
2019-05-10T21:16:32.338Z,11.25
2019-05-10T21:19:00.668Z,11.32
2019-05-10T21:21:29.945Z,11.41
2019-05-10T21:23:58.315Z,11.43
2019-05-10T21:26:26.681Z,11.39
2019-05-10T21:31:29.324Z,11.49
2019-05-10T21:36:31.952Z,11.74
2019-05-10T21:39:00.311Z,11.70
2019-05-10T21:41:28.718Z,11.52
2019-05-10T21:43:57.035Z,11.60
2019-05-10T21:46:25.415Z,11.46
2019-05-10T21:48:53.812Z,11.32
2019-05-10T21:51:22.210Z,11.29
2019-05-10T21:53:50.620Z,11.28
2019-05-10T21:56:18.983Z,11.26
2019-05-10T21:58:47.381Z,11.33
2019-05-10T22:01:15.713Z,11.42
2019-05-10T22:03:44.120Z,11.52
2019-05-10T22:06:12.499Z,11.55
2019-05-10T22:08:48.809Z,11.55
2019-05-10T22:11:09.302Z,11.57
2019-05-10T22:13:38.670Z,11.77
2019-05-10T22:18:43.293Z,11.26
2019-05-10T22:21:11.664Z,11.22
2019-05-10T22:23:41.069Z,11.26
2019-05-10T22:26:09.453Z,11.33
2019-05-10T22:28:37.841Z,11.42
2019-05-10T22:31:06.285Z,11.56
2019-05-10T22:33:34.730Z,11.56
2019-05-10T22:36:03.286Z,11.42
2019-05-10T22:38:31.670Z,11.41
2019-05-10T22:41:00.054Z,11.55
2019-05-10T22:46:02.782Z,11.61
2019-05-10T22:48:31.201Z,11.24
2019-05-10T22:50:59.583Z,11.20
2019-05-10T22:53:27.971Z,11.07
2019-05-10T22:55:56.389Z,10.93
2019-05-10T22:58:24.783Z,10.96
2019-05-10T23:00:53.288Z,10.93
2019-05-10T23:03:24.309Z,10.93
2019-05-10T23:05:50.068Z,10.92
2019-05-10T23:08:18.447Z,11.09
2019-05-10T23:10:46.857Z,11.03
2019-05-10T23:13:15.232Z,11.00
2019-05-10T23:15:43.631Z,11.01
2019-05-10T23:18:12.072Z,11.04
2019-05-10T23:20:41.339Z,11.08
2019-05-10T23:23:09.760Z,11.15
2019-05-10T23:25:38.200Z,11.23
2019-05-10T23:30:40.875Z,11.16
2019-05-10T23:33:09.299Z,10.93
2019-05-10T23:35:37.673Z,10.73
2019-05-10T23:38:06.080Z,10.67
2019-05-10T23:40:35.468Z,10.66
2019-05-10T23:43:03.945Z,10.74
2019-05-10T23:45:32.292Z,10.78
2019-05-10T23:48:00.675Z,10.87
2019-05-10T23:53:04.239Z,10.87
2019-05-10T23:55:32.615Z,10.90
